createdAt,value
2022-10-21T00:01:42.845Z,94238.50
2022-10-21T00:06:47.208Z,94235.75
2022-10-21T00:11:51.208Z,94236.94
2022-10-21T00:16:55.302Z,94231.47
2022-10-21T00:21:58.636Z,94230.25
2022-10-21T00:27:03.043Z,94236.44
2022-10-21T00:32:06.494Z,94228.53
2022-10-21T00:37:13.222Z,94230.75
2022-10-21T00:42:22.251Z,94229.03
2022-10-21T00:47:25.306Z,94216.41
2022-10-21T00:52:32.131Z,94224.50
2022-10-21T00:57:36.312Z,94222.88
2022-10-21T01:02:40.242Z,94226.66
2022-10-21T01:07:44.299Z,94224.97
2022-10-21T01:13:44.072Z,94224.88
2022-10-21T01:19:13.234Z,94216.16
2022-10-21T01:24:53.500Z,94223.97
2022-10-21T01:30:06.496Z,94219.16
2022-10-21T01:35:26.987Z,94215.59
2022-10-21T01:40:48.837Z,94211.28
2022-10-21T01:46:00.357Z,94212.75
2022-10-21T01:51:06.602Z,94206.06
2022-10-21T01:56:12.497Z,94205.50
2022-10-21T02:01:19.339Z,94207.03
2022-10-21T02:06:22.615Z,94208.91
2022-10-21T02:11:26.671Z,94215.81
2022-10-21T02:16:38.012Z,94213.06
2022-10-21T02:21:41.167Z,94218.81
2022-10-21T02:26:45.035Z,94209.72
2022-10-21T02:32:15.551Z,94222.56
2022-10-21T02:37:30.973Z,94222.50
2022-10-21T02:42:39.403Z,94218.56
2022-10-21T02:47:44.509Z,94227.47
2022-10-21T02:52:47.713Z,94227.38
2022-10-21T02:57:51.325Z,94232.34
2022-10-21T03:02:54.289Z,94227.53
2022-10-21T03:07:57.766Z,94236.44
2022-10-21T03:13:00.851Z,94230.84
2022-10-21T03:18:04.356Z,94215.47
2022-10-21T03:23:07.974Z,94222.66
2022-10-21T03:28:11.784Z,94219.84
2022-10-21T03:33:15.217Z,94231.50
2022-10-21T03:38:18.665Z,94225.97
2022-10-21T03:43:21.650Z,94227.38
2022-10-21T03:48:25.038Z,94217.63
2022-10-21T03:53:42.909Z,94232.19
2022-10-21T03:58:46.665Z,94228.25
2022-10-21T04:03:50.782Z,94225.53
2022-10-21T04:08:54.181Z,94234.00
2022-10-21T04:13:58.533Z,94206.84
2022-10-21T04:19:02.132Z,94224.53
2022-10-21T04:24:06.296Z,94228.78
2022-10-21T04:29:09.521Z,94232.97
2022-10-21T04:34:12.586Z,94226.47
2022-10-21T04:39:15.669Z,94240.53
2022-10-21T04:44:19.294Z,94234.00
2022-10-21T04:49:22.483Z,94240.44
2022-10-21T04:54:26.294Z,94238.50
2022-10-21T04:59:29.613Z,94245.91
2022-10-21T05:04:33.061Z,94248.69
2022-10-21T05:09:36.471Z,94246.03
2022-10-21T05:14:40.099Z,94246.13
2022-10-21T05:19:43.733Z,94247.06
2022-10-21T05:24:47.308Z,94248.78
2022-10-21T05:29:50.248Z,94250.53
2022-10-21T05:34:53.778Z,94258.22
2022-10-21T05:39:57.520Z,94268.09
2022-10-21T05:45:01.135Z,94265.00
2022-10-21T05:50:05.042Z,94265.81
2022-10-21T05:55:09.698Z,94277.56
2022-10-21T06:00:13.489Z,94271.00
2022-10-21T06:05:17.455Z,94269.88
2022-10-21T06:10:21.859Z,94281.25
2022-10-21T06:15:25.530Z,94286.78
2022-10-21T06:20:29.252Z,94276.47
2022-10-21T06:25:32.939Z,94281.25
2022-10-21T06:30:36.364Z,94284.59
2022-10-21T06:35:39.794Z,94289.03
2022-10-21T06:40:43.467Z,94302.84
2022-10-21T06:45:47.514Z,94295.28
2022-10-21T06:50:52.080Z,94290.47
2022-10-21T06:56:10.981Z,94308.47
2022-10-21T07:01:34.820Z,94317.56
2022-10-21T07:06:46.597Z,94309.13
2022-10-21T07:11:49.625Z,94323.03
2022-10-21T07:16:54.192Z,94306.94
2022-10-21T07:21:57.919Z,94328.81
2022-10-21T07:27:01.807Z,94336.88
2022-10-21T07:32:05.027Z,94338.66
2022-10-21T07:37:10.046Z,94336.31
2022-10-21T07:42:13.043Z,94335.09
2022-10-21T07:47:16.556Z,94326.31
2022-10-21T07:52:20.057Z,94332.50
2022-10-21T07:57:23.901Z,94329.88
2022-10-21T08:02:27.991Z,94334.97
2022-10-21T08:07:32.316Z,94360.00
2022-10-21T08:12:36.544Z,94336.53
2022-10-21T08:17:40.277Z,94348.91
2022-10-21T08:22:43.189Z,94346.31
2022-10-21T08:27:46.614Z,94322.50
2022-10-21T08:32:49.552Z,94351.09
2022-10-21T08:37:52.974Z,94361.50
2022-10-21T08:42:56.669Z,94380.06
2022-10-21T08:48:04.196Z,94366.72
2022-10-21T08:53:15.411Z,94373.75
2022-10-21T08:58:22.186Z,94379.47
2022-10-21T09:03:54.757Z,94378.06
2022-10-21T09:09:23.033Z,94381.94
2022-10-21T09:14:39.148Z,94381.88
2022-10-21T09:19:59.082Z,94383.38
2022-10-21T09:25:19.863Z,94390.59
2022-10-21T09:30:24.383Z,94382.72
2022-10-21T09:35:34.801Z,94376.66
2022-10-21T09:40:38.608Z,94369.66
2022-10-21T09:45:45.766Z,94354.34
2022-10-21T09:51:05.378Z,94365.44
2022-10-21T09:56:16.797Z,94363.91
2022-10-21T10:01:23.915Z,94347.41
2022-10-21T10:06:39.185Z,94353.25
2022-10-21T10:12:00.747Z,94362.13
2022-10-21T10:17:31.065Z,94360.41
2022-10-21T10:22:43.262Z,94362.53
2022-10-21T10:28:05.365Z,94354.44
2022-10-21T10:33:14.809Z,94345.88
2022-10-21T10:38:30.277Z,94333.00
2022-10-21T10:43:36.469Z,94328.72
2022-10-21T10:48:49.103Z,94328.75
2022-10-21T10:54:07.709Z,94333.53
2022-10-21T10:59:40.052Z,94324.38
2022-10-21T11:05:13.985Z,94316.69
2022-10-21T11:10:37.276Z,94315.69
2022-10-21T11:16:02.304Z,94316.72
2022-10-21T11:21:39.296Z,94315.84
2022-10-21T11:27:03.795Z,94305.16
2022-10-21T11:32:20.702Z,94303.28
2022-10-21T11:37:40.737Z,94291.13
2022-10-21T11:42:48.882Z,94295.59
2022-10-21T11:48:08.302Z,94285.69
2022-10-21T11:53:38.530Z,94261.56
2022-10-21T11:58:48.666Z,94273.84
2022-10-21T12:04:10.629Z,94267.69
2022-10-21T12:09:23.342Z,94254.91
2022-10-21T12:14:47.573Z,94262.84
2022-10-21T12:20:14.239Z,94254.06
2022-10-21T12:25:29.959Z,94244.75
2022-10-21T12:31:00.609Z,94248.09
2022-10-21T12:36:28.598Z,94237.00
2022-10-21T12:41:42.830Z,94235.00
2022-10-21T12:46:57.805Z,94239.63
2022-10-21T12:52:09.565Z,94233.44
2022-10-21T12:57:32.575Z,94235.94
2022-10-21T13:02:59.169Z,94225.78
2022-10-21T13:08:52.801Z,94229.97
2022-10-21T13:14:14.564Z,94225.31
2022-10-21T13:19:18.191Z,94220.66
2022-10-21T13:24:30.768Z,94206.34
2022-10-21T13:29:43.374Z,94230.84
2022-10-21T13:34:57.950Z,94222.75
2022-10-21T13:40:09.446Z,94220.75
2022-10-21T13:45:25.441Z,94215.66
2022-10-21T13:50:33.142Z,94203.13
2022-10-21T13:55:36.193Z,94218.41
2022-10-21T14:00:39.650Z,94218.69
2022-10-21T14:05:57.351Z,94222.34
2022-10-21T14:11:03.657Z,94230.13
2022-10-21T14:16:09.001Z,94204.66
2022-10-21T14:21:21.092Z,94232.75
2022-10-21T14:26:28.161Z,94229.66
2022-10-21T14:31:32.730Z,94223.63
2022-10-21T14:37:00.740Z,94227.28
2022-10-21T14:42:12.124Z,94225.63
2022-10-21T14:47:25.281Z,94234.59
2022-10-21T14:52:36.853Z,94239.84
2022-10-21T14:57:53.446Z,94241.34
2022-10-21T15:02:58.571Z,94242.09
2022-10-21T15:08:20.224Z,94252.63
2022-10-21T15:13:26.175Z,94252.47
2022-10-21T15:18:43.341Z,94258.78
2022-10-21T15:23:57.292Z,94267.78
2022-10-21T15:29:00.733Z,94258.53
2022-10-21T15:34:06.148Z,94250.78
2022-10-21T15:39:09.752Z,94268.22
2022-10-21T15:44:21.027Z,94266.06
2022-10-21T15:49:27.841Z,94247.59
2022-10-21T15:54:31.042Z,94267.19
2022-10-21T15:59:34.780Z,94260.06
2022-10-21T16:04:38.267Z,94266.66
2022-10-21T16:09:41.755Z,94255.91
2022-10-21T16:14:44.843Z,94268.38
2022-10-21T16:19:48.655Z,94271.09
2022-10-21T16:24:51.755Z,94282.31
2022-10-21T16:29:55.178Z,94271.13
2022-10-21T16:34:58.520Z,94289.53
2022-10-21T16:40:02.519Z,94295.31
2022-10-21T16:45:06.155Z,94289.56
2022-10-21T16:50:20.053Z,94306.59
2022-10-21T16:55:23.324Z,94309.03
2022-10-21T17:00:27.447Z,94314.63
2022-10-21T17:05:31.101Z,94324.47
2022-10-21T17:10:34.553Z,94318.63
2022-10-21T17:15:38.278Z,94280.09
2022-10-21T17:20:41.924Z,94330.06
2022-10-21T17:25:45.616Z,94335.56
2022-10-21T17:30:49.568Z,94301.75
2022-10-21T17:35:52.689Z,94353.69
2022-10-21T17:40:56.211Z,94353.69
2022-10-21T17:45:59.326Z,94344.22
2022-10-21T17:51:03.272Z,94359.97
2022-10-21T17:56:07.832Z,94372.53
2022-10-21T18:01:13.497Z,94378.06
2022-10-21T18:06:17.369Z,94388.31
2022-10-21T18:11:21.550Z,94380.84
2022-10-21T18:16:24.624Z,94398.16
2022-10-21T18:21:27.877Z,94394.59
2022-10-21T18:26:32.661Z,94397.34
2022-10-21T18:31:37.601Z,94395.41
2022-10-21T18:36:42.492Z,94400.13
2022-10-21T18:41:46.432Z,94391.44
2022-10-21T18:46:52.407Z,94404.34
2022-10-21T18:51:58.656Z,94405.38
2022-10-21T18:57:02.310Z,94388.00
2022-10-21T19:02:06.634Z,94418.25
2022-10-21T19:07:10.263Z,94419.41
2022-10-21T19:12:17.389Z,94426.72
2022-10-21T19:17:24.055Z,94426.94
2022-10-21T19:27:39.554Z,94422.09
2022-10-21T19:32:45.300Z,94430.59
2022-10-21T19:37:49.920Z,94424.22
2022-10-21T19:42:53.061Z,94425.81
2022-10-21T19:47:58.778Z,94414.00
2022-10-21T19:53:04.417Z,94432.59
2022-10-21T19:58:09.083Z,94434.63
2022-10-21T20:03:15.027Z,94416.22
2022-10-21T20:08:19.147Z,94435.94
2022-10-21T20:13:24.442Z,94422.59
2022-10-21T20:18:28.980Z,94444.09
2022-10-21T20:23:32.653Z,94446.41
2022-10-21T20:28:37.562Z,94438.03
2022-10-21T20:33:44.865Z,94445.69
2022-10-21T20:38:50.240Z,94451.44
2022-10-21T20:43:54.960Z,94452.03
2022-10-21T20:48:58.363Z,94438.50
2022-10-21T20:54:05.741Z,94442.19
2022-10-21T20:59:12.444Z,94449.22
2022-10-21T21:04:20.918Z,94444.28
2022-10-21T21:14:47.537Z,94437.03
2022-10-21T21:19:51.586Z,94442.31
2022-10-21T21:24:55.196Z,94437.81
2022-10-21T21:29:58.473Z,94435.06
2022-10-21T21:35:05.234Z,94446.69
2022-10-21T21:40:12.921Z,94443.38
2022-10-21T21:45:16.572Z,94432.25
2022-10-21T21:50:20.106Z,94438.91
2022-10-21T21:55:23.125Z,94442.25
2022-10-21T22:00:28.430Z,94424.25
2022-10-21T22:05:34.319Z,94433.63
2022-10-21T22:10:39.195Z,94434.72
2022-10-21T22:15:48.151Z,94421.81
2022-10-21T22:20:52.223Z,94426.97
2022-10-21T22:25:56.423Z,94430.31
2022-10-21T22:31:02.219Z,94424.31
2022-10-21T22:36:06.770Z,94421.81
2022-10-21T22:41:12.675Z,94414.97
2022-10-21T22:51:39.994Z,94420.00
2022-10-21T22:56:43.072Z,94415.91
2022-10-21T23:01:46.477Z,94416.31
2022-10-21T23:06:49.438Z,94415.47
2022-10-21T23:11:53.061Z,94409.19
2022-10-21T23:16:56.116Z,94409.63
2022-10-21T23:21:59.066Z,94406.47
2022-10-21T23:27:02.235Z,94391.81
2022-10-21T23:32:06.022Z,94392.25
2022-10-21T23:37:09.131Z,94396.81
2022-10-21T23:42:12.698Z,94400.97
2022-10-21T23:47:16.356Z,94389.09
2022-10-21T23:52:19.847Z,94373.84
2022-10-21T23:57:24.032Z,94370.91
